createdAt,value
2019-01-19T00:00:55.757Z,2.42
2019-01-19T00:04:04.167Z,3.30
2019-01-19T00:07:12.031Z,3.27
2019-01-19T00:10:27.094Z,4.03
2019-01-19T00:13:20.807Z,3.12
2019-01-19T00:16:29.802Z,1.57
2019-01-19T00:19:37.548Z,4.10
2019-01-19T00:22:45.744Z,2.12
2019-01-19T00:25:53.125Z,2.40
2019-01-19T00:32:04.739Z,2.25
2019-01-19T00:35:17.737Z,1.75
2019-01-19T00:38:06.394Z,2.10
2019-01-19T00:44:15.882Z,2.98
2019-01-19T00:47:20.492Z,1.25
2019-01-19T00:50:12.274Z,1.42
2019-01-19T00:53:20.389Z,4.83
2019-01-19T00:56:14.592Z,3.42
2019-01-19T00:59:05.825Z,1.15
2019-01-19T01:02:13.243Z,3.02
2019-01-19T01:05:04.689Z,2.02
2019-01-19T01:08:12.452Z,2.87
2019-01-19T01:11:08.216Z,2.50
2019-01-19T01:14:32.454Z,4.45
2019-01-19T01:17:40.376Z,2.67
2019-01-19T01:24:08.021Z,2.20
2019-01-19T01:27:15.754Z,2.85
2019-01-19T01:30:23.098Z,2.83
2019-01-19T01:33:35.227Z,1.87
2019-01-19T01:36:17.235Z,2.95
2019-01-19T01:39:25.448Z,2.02
2019-01-19T01:42:33.287Z,1.70
2019-01-19T01:45:41.297Z,1.47
2019-01-19T01:48:48.639Z,1.85
2019-01-19T01:54:58.041Z,1.82
2019-01-19T01:58:05.747Z,0.85
2019-01-19T02:01:26.447Z,2.08
2019-01-19T02:07:53.372Z,1.82
2019-01-19T02:11:01.473Z,3.55
2019-01-19T02:14:09.201Z,3.55
2019-01-19T02:17:16.935Z,6.72
2019-01-19T02:20:24.329Z,2.90
2019-01-19T02:23:32.136Z,3.72
2019-01-19T02:26:31.036Z,5.08
2019-01-19T02:33:04.707Z,4.20
2019-01-19T02:36:16.824Z,4.45
2019-01-19T02:39:30.022Z,6.90
2019-01-19T02:42:39.325Z,6.35
2019-01-19T02:45:33.885Z,1.70
2019-01-19T02:48:43.168Z,3.20
2019-01-19T02:51:51.773Z,1.80
2019-01-19T02:58:22.670Z,1.55
2019-01-19T03:04:32.782Z,3.17
2019-01-19T03:07:40.183Z,2.92
2019-01-19T03:10:33.780Z,2.87
2019-01-19T03:13:41.514Z,1.72
2019-01-19T03:16:47.135Z,4.28
2019-01-19T03:19:54.957Z,2.75
2019-01-19T03:23:03.058Z,5.50
2019-01-19T03:26:09.538Z,2.77
2019-01-19T03:29:18.727Z,2.33
2019-01-19T03:32:26.512Z,2.15
2019-01-19T03:35:21.615Z,3.67
2019-01-19T03:38:29.435Z,4.95
2019-01-19T03:41:37.710Z,2.52
2019-01-19T03:44:45.056Z,3.92
2019-01-19T03:47:46.910Z,2.30
2019-01-19T03:50:54.669Z,3.62
2019-01-19T03:54:02.077Z,5.28
2019-01-19T03:57:10.615Z,2.90
2019-01-19T04:00:37.200Z,6.65
2019-01-19T04:03:44.937Z,3.62
2019-01-19T04:06:52.959Z,3.20
2019-01-19T04:10:00.763Z,2.40
2019-01-19T04:13:03.015Z,3.33
2019-01-19T04:16:10.422Z,4.17
2019-01-19T04:19:18.119Z,3.02
2019-01-19T04:25:12.871Z,3.40
2019-01-19T04:36:43.809Z,3.25
2019-01-19T04:42:38.986Z,1.85
2019-01-19T04:45:08.509Z,2.47
2019-01-19T04:47:39.404Z,1.95
2019-01-19T04:50:09.932Z,3.35
2019-01-19T04:52:58.915Z,9.40
2019-01-19T04:55:30.180Z,1.82
2019-01-19T04:58:02.143Z,1.87
2019-01-19T05:00:32.314Z,9.38
2019-01-19T05:03:43.635Z,2.50
2019-01-19T05:12:26.748Z,9.68
2019-01-19T05:18:22.977Z,2.10
2019-01-19T05:24:26.947Z,1.30
2019-01-19T05:29:58.800Z,8.30
2019-01-19T05:35:39.923Z,11.15
2019-01-19T05:47:32.906Z,6.33
2019-01-19T05:50:44.713Z,2.80
2019-01-19T05:53:14.229Z,2.62
2019-01-19T05:55:43.635Z,10.05
2019-01-19T05:58:16.284Z,5.10
2019-01-19T06:01:26.066Z,2.10
2019-01-19T06:07:10.394Z,1.05
2019-01-19T06:09:39.931Z,7.30
2019-01-19T06:12:09.368Z,5.15
2019-01-19T06:14:38.866Z,3.30
2019-01-19T06:17:08.394Z,3.77
2019-01-19T06:23:05.731Z,1.75
2019-01-19T06:25:35.313Z,1.95
2019-01-19T06:28:04.713Z,1.40
2019-01-19T06:30:34.130Z,1.80
2019-01-19T06:33:03.983Z,5.05
2019-01-19T06:35:33.795Z,2.47
2019-01-19T06:38:03.743Z,2.92
2019-01-19T06:40:34.861Z,2.10
2019-01-19T06:43:04.347Z,7.70
2019-01-19T06:45:33.873Z,6.58
2019-01-19T06:48:03.593Z,2.12
2019-01-19T06:57:08.000Z,1.72
2019-01-19T07:02:47.873Z,1.62
2019-01-19T07:05:17.533Z,3.72
2019-01-19T07:07:47.124Z,7.55
2019-01-19T07:10:36.976Z,3.00
2019-01-19T07:19:22.574Z,3.30
2019-01-19T07:21:52.264Z,9.15
2019-01-19T07:27:17.967Z,12.58
2019-01-19T07:29:47.523Z,4.10
2019-01-19T07:35:23.357Z,3.40
2019-01-19T07:41:08.189Z,10.48
2019-01-19T07:44:17.191Z,2.72
2019-01-19T07:47:26.824Z,4.28
2019-01-19T07:49:56.383Z,1.62
2019-01-19T07:52:26.766Z,5.70
2019-01-19T07:54:56.207Z,4.00
2019-01-19T07:57:31.206Z,4.33
2019-01-19T07:59:57.969Z,5.05
2019-01-19T08:02:27.652Z,2.50
2019-01-19T08:04:57.280Z,3.00
2019-01-19T08:07:26.967Z,4.35
2019-01-19T08:09:56.683Z,2.22
2019-01-19T08:12:47.101Z,4.95
2019-01-19T08:15:57.064Z,10.40
2019-01-19T08:21:21.406Z,6.50
2019-01-19T08:23:50.784Z,6.33
2019-01-19T08:26:59.556Z,14.78
2019-01-19T08:32:32.987Z,5.15
2019-01-19T08:35:06.377Z,6.33
2019-01-19T08:37:35.873Z,7.53
2019-01-19T08:40:08.351Z,5.85
2019-01-19T08:42:38.085Z,13.18
2019-01-19T08:45:08.406Z,4.85
2019-01-19T08:47:37.873Z,9.10
2019-01-19T08:50:08.891Z,7.65
2019-01-19T08:52:38.513Z,11.15
2019-01-19T08:55:08.614Z,10.13
2019-01-19T08:57:38.216Z,10.40
2019-01-19T09:00:11.921Z,8.35
2019-01-19T09:02:41.939Z,9.45
2019-01-19T09:05:11.648Z,13.58
2019-01-19T09:07:41.460Z,6.45
2019-01-19T09:10:13.246Z,11.88
2019-01-19T09:12:42.706Z,10.65
2019-01-19T09:15:14.155Z,15.00
2019-01-19T09:17:43.874Z,12.75
2019-01-19T09:20:16.792Z,11.25
2019-01-19T09:22:48.070Z,12.43
2019-01-19T09:25:18.030Z,8.80
2019-01-19T09:27:47.601Z,9.13
2019-01-19T09:30:19.209Z,12.25
2019-01-19T09:32:49.377Z,20.20
2019-01-19T09:35:19.053Z,14.83
2019-01-19T09:37:49.572Z,16.00
2019-01-19T09:40:19.239Z,16.75
2019-01-19T09:42:49.072Z,19.20
2019-01-19T09:45:19.199Z,17.20
2019-01-19T09:47:48.634Z,21.95
2019-01-19T09:50:19.327Z,21.40
2019-01-19T09:52:49.036Z,25.00
2019-01-19T09:55:19.586Z,23.95
2019-01-19T09:57:51.625Z,27.75
2019-01-19T10:03:16.620Z,25.88
2019-01-19T10:09:34.404Z,25.30
2019-01-19T10:12:06.386Z,25.27
2019-01-19T10:14:35.784Z,18.25
2019-01-19T10:20:32.229Z,13.58
2019-01-19T10:23:41.172Z,18.40
2019-01-19T10:26:10.608Z,20.85
2019-01-19T10:28:41.462Z,15.72
2019-01-19T10:31:11.347Z,19.20
2019-01-19T10:33:41.299Z,20.77
2019-01-19T10:36:10.797Z,24.35
2019-01-19T10:38:40.736Z,17.10
2019-01-19T10:41:10.523Z,19.10
2019-01-19T10:43:39.950Z,16.23
2019-01-19T10:46:09.629Z,17.80
2019-01-19T10:48:39.960Z,17.52
2019-01-19T10:51:09.433Z,19.12
2019-01-19T10:53:38.848Z,15.83
2019-01-19T10:56:08.341Z,17.27
2019-01-19T10:58:37.783Z,17.07
2019-01-19T11:01:07.330Z,18.70
2019-01-19T11:03:36.829Z,19.60
2019-01-19T11:06:10.317Z,14.15
2019-01-19T11:08:39.872Z,17.62
2019-01-19T11:11:09.303Z,37.85
2019-01-19T11:13:39.137Z,21.50
2019-01-19T11:16:08.843Z,41.18
2019-01-19T11:18:38.550Z,22.42
2019-01-19T11:21:08.083Z,22.27
2019-01-19T11:23:39.859Z,16.48
2019-01-19T11:26:12.255Z,25.43
2019-01-19T11:28:41.834Z,21.82
2019-01-19T11:31:11.423Z,23.80
2019-01-19T11:33:44.599Z,15.30
2019-01-19T11:36:14.328Z,29.25
2019-01-19T11:38:44.001Z,19.27
2019-01-19T11:41:13.468Z,15.20
2019-01-19T11:43:42.919Z,19.90
2019-01-19T11:46:12.466Z,17.00
2019-01-19T11:48:44.362Z,20.95
2019-01-19T11:51:13.859Z,22.55
2019-01-19T11:53:43.267Z,15.90
2019-01-19T11:56:15.133Z,17.62
2019-01-19T11:58:44.576Z,23.98
2019-01-19T12:01:13.997Z,16.57
2019-01-19T12:03:43.522Z,16.82
2019-01-19T12:06:13.053Z,16.82
2019-01-19T12:08:42.608Z,26.75
2019-01-19T12:11:13.228Z,19.07
2019-01-19T12:13:42.709Z,12.78
2019-01-19T12:16:12.981Z,14.95
2019-01-19T12:18:42.599Z,20.77
2019-01-19T12:21:12.137Z,22.07
2019-01-19T12:26:55.728Z,17.32
2019-01-19T12:30:04.627Z,18.48
2019-01-19T12:33:15.754Z,17.40
2019-01-19T12:41:47.291Z,11.30
2019-01-19T12:44:56.232Z,23.18
2019-01-19T12:48:05.379Z,25.27
2019-01-19T12:53:36.443Z,20.82
2019-01-19T12:56:45.130Z,20.68
2019-01-19T13:02:10.270Z,19.07
2019-01-19T13:04:39.799Z,20.55
2019-01-19T13:07:15.006Z,26.93
2019-01-19T13:09:48.153Z,19.82
2019-01-19T13:12:39.885Z,20.48
2019-01-19T13:15:47.714Z,21.37
2019-01-19T13:18:55.284Z,22.75
2019-01-19T13:22:02.674Z,18.40
2019-01-19T13:25:10.092Z,18.73
2019-01-19T13:28:06.807Z,23.50
2019-01-19T13:31:14.670Z,21.37
2019-01-19T13:34:22.374Z,22.42
2019-01-19T13:37:30.217Z,15.45
2019-01-19T13:40:37.998Z,18.23
2019-01-19T13:47:06.339Z,21.17
2019-01-19T13:50:14.362Z,12.88
2019-01-19T13:53:08.936Z,16.20
2019-01-19T13:56:11.943Z,19.32
2019-01-19T13:58:48.916Z,18.12
2019-01-19T14:01:58.109Z,16.17
2019-01-19T14:04:39.136Z,21.68
2019-01-19T14:07:32.701Z,14.78
2019-01-19T14:11:03.919Z,13.58
2019-01-19T14:14:18.330Z,13.53
2019-01-19T14:17:25.849Z,12.20
2019-01-19T14:20:04.858Z,11.65
2019-01-19T14:23:10.004Z,10.30
2019-01-19T14:26:17.303Z,12.60
2019-01-19T14:29:30.677Z,13.78
2019-01-19T14:32:37.302Z,13.03
2019-01-19T14:35:45.804Z,10.08
2019-01-19T14:38:56.796Z,14.23
2019-01-19T14:42:24.113Z,13.70
2019-01-19T14:45:29.779Z,13.60
2019-01-19T14:49:04.540Z,10.78
2019-01-19T14:52:15.075Z,11.53
2019-01-19T14:55:01.695Z,10.88
2019-01-19T14:57:56.295Z,9.53
2019-01-19T15:01:08.604Z,8.65
2019-01-19T15:04:21.995Z,12.63
2019-01-19T15:07:24.438Z,10.50
2019-01-19T15:10:14.399Z,11.25
2019-01-19T15:13:16.716Z,7.45
2019-01-19T15:16:24.188Z,9.95
2019-01-19T15:19:37.898Z,7.62
2019-01-19T15:22:28.022Z,10.30
2019-01-19T15:25:36.734Z,10.85
2019-01-19T15:29:08.132Z,11.78
2019-01-19T15:32:24.971Z,16.37
2019-01-19T15:35:42.053Z,8.80
2019-01-19T15:38:49.710Z,12.20
2019-01-19T15:42:05.430Z,11.88
2019-01-19T15:45:18.631Z,14.43
2019-01-19T15:48:31.848Z,10.63
2019-01-19T15:51:37.980Z,12.73
2019-01-19T15:54:25.483Z,19.05
2019-01-19T15:57:33.379Z,16.32
2019-01-19T16:00:14.432Z,13.30
2019-01-19T16:06:50.142Z,13.53
2019-01-19T16:10:00.586Z,18.73
2019-01-19T16:13:08.501Z,21.48
2019-01-19T16:16:16.631Z,20.08
2019-01-19T16:19:24.877Z,13.13
2019-01-19T16:22:32.695Z,27.55
2019-01-19T16:25:40.519Z,16.07
2019-01-19T16:28:48.307Z,16.80
2019-01-19T16:35:04.468Z,11.45
2019-01-19T16:38:02.928Z,14.28
2019-01-19T16:40:54.493Z,7.58
2019-01-19T16:44:09.534Z,12.58
2019-01-19T16:47:22.978Z,9.95
2019-01-19T16:50:19.018Z,8.28
2019-01-19T16:53:22.832Z,10.78
2019-01-19T16:56:20.412Z,4.65
2019-01-19T16:59:16.102Z,12.15
2019-01-19T17:02:34.679Z,9.60
2019-01-19T17:05:45.118Z,9.88
2019-01-19T17:08:46.634Z,6.97
2019-01-19T17:12:06.188Z,8.23
2019-01-19T17:15:13.895Z,7.97
2019-01-19T17:18:13.241Z,8.38
2019-01-19T17:21:12.449Z,8.30
2019-01-19T17:24:11.190Z,8.20
2019-01-19T17:27:19.413Z,12.00
2019-01-19T17:30:27.676Z,11.65
2019-01-19T17:36:56.646Z,9.30
2019-01-19T17:40:06.195Z,7.53
2019-01-19T17:43:13.318Z,10.38
2019-01-19T17:46:19.531Z,6.55
2019-01-19T17:49:14.764Z,5.72
2019-01-19T17:52:23.348Z,7.17
2019-01-19T17:55:51.433Z,8.78
2019-01-19T17:59:09.485Z,9.48
2019-01-19T18:02:15.565Z,12.53
2019-01-19T18:05:09.818Z,11.03
2019-01-19T18:08:23.127Z,6.83
2019-01-19T18:11:21.387Z,7.55
2019-01-19T18:14:24.444Z,8.43
2019-01-19T18:17:41.218Z,11.97
2019-01-19T18:21:03.234Z,8.95
2019-01-19T18:24:02.511Z,6.37
2019-01-19T18:27:40.086Z,13.55
2019-01-19T18:30:44.610Z,11.35
2019-01-19T18:33:43.095Z,9.03
2019-01-19T18:36:34.872Z,7.03
2019-01-19T18:39:45.186Z,7.67
2019-01-19T18:42:50.310Z,11.00
2019-01-19T18:45:58.349Z,15.78
2019-01-19T18:52:27.566Z,9.40
2019-01-19T18:55:35.107Z,13.18
2019-01-19T18:59:57.049Z,11.05
2019-01-19T19:03:04.644Z,11.33
2019-01-19T19:05:59.974Z,10.23
2019-01-19T19:08:41.629Z,6.22
2019-01-19T19:11:51.280Z,10.45
2019-01-19T19:14:39.072Z,9.65
2019-01-19T19:18:04.797Z,10.32
2019-01-19T19:21:19.171Z,9.08
2019-01-19T19:24:41.686Z,9.98
2019-01-19T19:27:46.355Z,8.68
2019-01-19T19:30:43.043Z,10.65
2019-01-19T19:33:59.842Z,13.20
2019-01-19T19:36:49.996Z,8.70
2019-01-19T19:40:27.904Z,9.63
2019-01-19T19:43:47.654Z,10.08
2019-01-19T19:47:10.545Z,11.05
2019-01-19T19:50:08.287Z,13.58
2019-01-19T19:52:38.175Z,9.95
2019-01-19T19:55:06.030Z,9.88
2019-01-19T19:57:35.886Z,12.82
2019-01-19T20:00:07.378Z,11.55
2019-01-19T20:02:39.562Z,15.93
2019-01-19T20:05:09.808Z,15.63
2019-01-19T20:07:39.768Z,10.38
2019-01-19T20:10:16.949Z,12.10
2019-01-19T20:15:57.610Z,15.63
2019-01-19T20:19:07.600Z,11.35
2019-01-19T20:21:38.024Z,13.53
2019-01-19T20:24:08.427Z,12.30
2019-01-19T20:26:38.137Z,15.00
2019-01-19T20:29:08.598Z,8.80
2019-01-19T20:31:38.994Z,12.13
2019-01-19T20:34:09.221Z,8.83
2019-01-19T20:36:39.910Z,6.35
2019-01-19T20:39:10.980Z,8.70
2019-01-19T20:41:40.866Z,9.93
2019-01-19T20:44:11.862Z,14.23
2019-01-19T20:46:41.841Z,11.25
2019-01-19T20:49:11.678Z,18.98
2019-01-19T20:51:42.006Z,14.18
2019-01-19T20:54:11.894Z,12.93
2019-01-19T20:56:44.031Z,10.78
2019-01-19T20:59:13.919Z,13.25
2019-01-19T21:01:44.546Z,13.53
2019-01-19T21:04:15.940Z,17.60
2019-01-19T21:06:46.640Z,13.08
2019-01-19T21:09:16.644Z,10.78
2019-01-19T21:11:46.608Z,13.55
2019-01-19T21:14:16.501Z,7.17
2019-01-19T21:16:46.296Z,15.45
2019-01-19T21:19:17.248Z,11.30
2019-01-19T21:21:47.421Z,16.35
2019-01-19T21:24:17.696Z,14.13
2019-01-19T21:26:47.490Z,11.63
2019-01-19T21:29:17.957Z,9.88
2019-01-19T21:31:48.214Z,8.70
2019-01-19T21:34:18.184Z,8.30
2019-01-19T21:36:48.531Z,9.18
2019-01-19T21:39:19.848Z,9.15
2019-01-19T21:41:49.535Z,8.00
2019-01-19T21:44:19.357Z,9.95
2019-01-19T21:46:49.037Z,14.75
2019-01-19T21:49:19.261Z,6.95
2019-01-19T21:51:48.955Z,8.10
2019-01-19T21:54:18.671Z,7.83
2019-01-19T21:56:51.164Z,9.95
2019-01-19T21:59:20.885Z,7.10
2019-01-19T22:01:50.459Z,5.70
2019-01-19T22:04:20.020Z,8.05
2019-01-19T22:06:49.601Z,9.15
2019-01-19T22:09:19.187Z,8.73
2019-01-19T22:11:49.620Z,6.45
2019-01-19T22:14:19.814Z,7.85
2019-01-19T22:16:49.943Z,3.65
2019-01-19T22:19:20.654Z,5.85
2019-01-19T22:21:50.139Z,6.33
2019-01-19T22:24:20.591Z,7.50
2019-01-19T22:26:52.482Z,5.75
2019-01-19T22:29:22.141Z,5.60
2019-01-19T22:31:52.024Z,4.90
2019-01-19T22:34:21.719Z,3.45
2019-01-19T22:36:51.752Z,4.67
2019-01-19T22:39:21.955Z,6.35
2019-01-19T22:41:51.844Z,7.53
2019-01-19T22:44:24.399Z,7.10
2019-01-19T22:46:53.768Z,3.75
2019-01-19T22:49:23.660Z,3.85
2019-01-19T22:51:53.311Z,4.90
2019-01-19T22:54:22.997Z,2.47
2019-01-19T22:56:52.483Z,6.08
2019-01-19T22:59:22.016Z,3.62
2019-01-19T23:02:04.741Z,3.20
2019-01-19T23:04:35.215Z,7.70
2019-01-19T23:07:05.125Z,2.27
2019-01-19T23:09:34.532Z,3.08
2019-01-19T23:12:04.185Z,5.35
2019-01-19T23:14:34.040Z,3.00
2019-01-19T23:17:03.579Z,6.85
2019-01-19T23:19:33.318Z,4.78
2019-01-19T23:22:02.844Z,2.77
2019-01-19T23:24:32.344Z,9.65
2019-01-19T23:27:07.318Z,1.85
2019-01-19T23:29:37.838Z,1.12
2019-01-19T23:32:07.854Z,2.62
2019-01-19T23:34:37.638Z,0.98
2019-01-19T23:37:07.787Z,0.57
2019-01-19T23:39:37.293Z,1.27
2019-01-19T23:42:07.453Z,0.60
2019-01-19T23:44:37.375Z,0.40
2019-01-19T23:47:07.110Z,1.40
2019-01-19T23:49:37.304Z,0.85
2019-01-19T23:52:06.957Z,0.20
2019-01-19T23:54:38.631Z,0.75
2019-01-19T23:57:08.896Z,0.60
2019-01-19T23:59:38.343Z,0.42
